sensor_id;sensor_type;location;lat;lon;timestamp;P1;durP1;ratioP1;P2;durP2;ratioP2
18887;SDS011;9576;47.792;9.628;2023-01-09T00:00:07;8.52;;;5.20;;
18887;SDS011;9576;47.792;9.628;2023-01-09T00:03:10;4.63;;;2.78;;
18887;SDS011;9576;47.792;9.628;2023-01-09T00:06:12;5.07;;;2.88;;
18887;SDS011;9576;47.792;9.628;2023-01-09T00:09:15;5.05;;;2.72;;
18887;SDS011;9576;47.792;9.628;2023-01-09T00:12:18;4.97;;;2.47;;
18887;SDS011;9576;47.792;9.628;2023-01-09T00:15:20;9.80;;;3.28;;
18887;SDS011;9576;47.792;9.628;2023-01-09T00:18:22;17.38;;;9.35;;
18887;SDS011;9576;47.792;9.628;2023-01-09T00:21:23;23.50;;;11.18;;
18887;SDS011;9576;47.792;9.628;2023-01-09T00:24:25;19.15;;;11.23;;
18887;SDS011;9576;47.792;9.628;2023-01-09T00:27:30;24.52;;;11.52;;
18887;SDS011;9576;47.792;9.628;2023-01-09T00:30:32;20.50;;;12.35;;
18887;SDS011;9576;47.792;9.628;2023-01-09T00:33:35;27.70;;;11.88;;
18887;SDS011;9576;47.792;9.628;2023-01-09T00:36:39;17.02;;;10.48;;
18887;SDS011;9576;47.792;9.628;2023-01-09T00:39:41;27.67;;;11.95;;
18887;SDS011;9576;47.792;9.628;2023-01-09T00:42:45;21.13;;;12.05;;
18887;SDS011;9576;47.792;9.628;2023-01-09T00:45:49;25.58;;;13.20;;
18887;SDS011;9576;47.792;9.628;2023-01-09T00:48:51;26.58;;;12.93;;
18887;SDS011;9576;47.792;9.628;2023-01-09T00:51:53;23.88;;;12.38;;
18887;SDS011;9576;47.792;9.628;2023-01-09T00:54:56;24.73;;;12.85;;
18887;SDS011;9576;47.792;9.628;2023-01-09T00:58:00;23.75;;;11.27;;
18887;SDS011;9576;47.792;9.628;2023-01-09T01:01:02;26.13;;;12.97;;
18887;SDS011;9576;47.792;9.628;2023-01-09T01:04:04;21.15;;;11.70;;
18887;SDS011;9576;47.792;9.628;2023-01-09T01:07:20;21.65;;;12.82;;
18887;SDS011;9576;47.792;9.628;2023-01-09T01:10:40;23.08;;;12.10;;
18887;SDS011;9576;47.792;9.628;2023-01-09T01:13:45;22.27;;;12.98;;
18887;SDS011;9576;47.792;9.628;2023-01-09T01:16:46;25.80;;;14.13;;
18887;SDS011;9576;47.792;9.628;2023-01-09T01:19:48;19.88;;;10.88;;
18887;SDS011;9576;47.792;9.628;2023-01-09T01:22:50;21.05;;;11.80;;
18887;SDS011;9576;47.792;9.628;2023-01-09T01:25:52;22.77;;;12.40;;
18887;SDS011;9576;47.792;9.628;2023-01-09T01:28:55;24.98;;;12.75;;
18887;SDS011;9576;47.792;9.628;2023-01-09T01:31:58;27.52;;;12.23;;
18887;SDS011;9576;47.792;9.628;2023-01-09T01:35:00;21.83;;;12.38;;
18887;SDS011;9576;47.792;9.628;2023-01-09T01:38:03;21.15;;;12.73;;
18887;SDS011;9576;47.792;9.628;2023-01-09T01:41:05;29.58;;;12.77;;
18887;SDS011;9576;47.792;9.628;2023-01-09T01:47:45;21.48;;;11.32;;
18887;SDS011;9576;47.792;9.628;2023-01-09T01:50:53;20.33;;;10.52;;
18887;SDS011;9576;47.792;9.628;2023-01-09T01:53:59;14.05;;;7.68;;
18887;SDS011;9576;47.792;9.628;2023-01-09T01:57:04;11.98;;;5.90;;
18887;SDS011;9576;47.792;9.628;2023-01-09T02:00:08;11.82;;;6.80;;
18887;SDS011;9576;47.792;9.628;2023-01-09T02:03:13;9.77;;;5.82;;
18887;SDS011;9576;47.792;9.628;2023-01-09T02:06:18;10.02;;;5.18;;
18887;SDS011;9576;47.792;9.628;2023-01-09T02:09:20;8.32;;;4.88;;
18887;SDS011;9576;47.792;9.628;2023-01-09T02:12:25;9.55;;;4.63;;
18887;SDS011;9576;47.792;9.628;2023-01-09T02:15:28;9.17;;;5.33;;
18887;SDS011;9576;47.792;9.628;2023-01-09T02:18:49;12.20;;;4.88;;
18887;SDS011;9576;47.792;9.628;2023-01-09T02:21:57;7.78;;;4.43;;
18887;SDS011;9576;47.792;9.628;2023-01-09T02:25:11;6.00;;;3.15;;
18887;SDS011;9576;47.792;9.628;2023-01-09T02:32:09;7.82;;;4.15;;
18887;SDS011;9576;47.792;9.628;2023-01-09T02:35:24;12.20;;;4.35;;
18887;SDS011;9576;47.792;9.628;2023-01-09T02:38:33;9.00;;;4.43;;
18887;SDS011;9576;47.792;9.628;2023-01-09T02:41:43;9.50;;;4.55;;
18887;SDS011;9576;47.792;9.628;2023-01-09T02:44:49;8.82;;;3.95;;
18887;SDS011;9576;47.792;9.628;2023-01-09T02:47:52;8.80;;;5.07;;
18887;SDS011;9576;47.792;9.628;2023-01-09T02:50:58;7.32;;;3.50;;
18887;SDS011;9576;47.792;9.628;2023-01-09T02:54:15;7.90;;;3.67;;
18887;SDS011;9576;47.792;9.628;2023-01-09T02:57:28;4.47;;;2.45;;
18887;SDS011;9576;47.792;9.628;2023-01-09T03:00:51;4.47;;;2.90;;
18887;SDS011;9576;47.792;9.628;2023-01-09T03:04:00;2.13;;;1.38;;
18887;SDS011;9576;47.792;9.628;2023-01-09T03:07:11;2.08;;;1.20;;
18887;SDS011;9576;47.792;9.628;2023-01-09T03:10:20;0.80;;;0.80;;
18887;SDS011;9576;47.792;9.628;2023-01-09T03:13:28;2.13;;;1.25;;
18887;SDS011;9576;47.792;9.628;2023-01-09T03:16:34;0.90;;;0.70;;
18887;SDS011;9576;47.792;9.628;2023-01-09T03:19:38;0.63;;;0.63;;
18887;SDS011;9576;47.792;9.628;2023-01-09T03:22:44;0.90;;;0.75;;
18887;SDS011;9576;47.792;9.628;2023-01-09T03:25:53;0.52;;;0.52;;
18887;SDS011;9576;47.792;9.628;2023-01-09T03:28:55;0.52;;;0.32;;
18887;SDS011;9576;47.792;9.628;2023-01-09T03:31:57;0.55;;;0.55;;
18887;SDS011;9576;47.792;9.628;2023-01-09T03:35:01;0.40;;;0.40;;
18887;SDS011;9576;47.792;9.628;2023-01-09T03:38:02;0.20;;;0.20;;
18887;SDS011;9576;47.792;9.628;2023-01-09T03:41:05;0.30;;;0.30;;
18887;SDS011;9576;47.792;9.628;2023-01-09T03:44:07;0.40;;;0.40;;
18887;SDS011;9576;47.792;9.628;2023-01-09T03:47:09;0.17;;;0.17;;
18887;SDS011;9576;47.792;9.628;2023-01-09T03:50:12;0.20;;;0.20;;
18887;SDS011;9576;47.792;9.628;2023-01-09T03:53:14;0.63;;;0.30;;
18887;SDS011;9576;47.792;9.628;2023-01-09T03:56:16;1.75;;;0.40;;
18887;SDS011;9576;47.792;9.628;2023-01-09T03:59:18;0.98;;;0.32;;
18887;SDS011;9576;47.792;9.628;2023-01-09T04:02:20;0.50;;;0.50;;
18887;SDS011;9576;47.792;9.628;2023-01-09T04:05:23;0.20;;;0.20;;
18887;SDS011;9576;47.792;9.628;2023-01-09T04:08:25;0.32;;;0.25;;
18887;SDS011;9576;47.792;9.628;2023-01-09T04:11:27;0.47;;;0.40;;
18887;SDS011;9576;47.792;9.628;2023-01-09T04:14:29;1.13;;;0.30;;
18887;SDS011;9576;47.792;9.628;2023-01-09T04:17:31;1.13;;;0.28;;
18887;SDS011;9576;47.792;9.628;2023-01-09T04:20:34;0.20;;;0.20;;
18887;SDS011;9576;47.792;9.628;2023-01-09T04:23:36;0.32;;;0.32;;
18887;SDS011;9576;47.792;9.628;2023-01-09T04:26:38;0.10;;;0.10;;
18887;SDS011;9576;47.792;9.628;2023-01-09T04:29:40;0.43;;;0.30;;
18887;SDS011;9576;47.792;9.628;2023-01-09T04:32:42;0.20;;;0.20;;
18887;SDS011;9576;47.792;9.628;2023-01-09T04:35:45;0.20;;;0.20;;
18887;SDS011;9576;47.792;9.628;2023-01-09T04:38:47;1.00;;;0.40;;
18887;SDS011;9576;47.792;9.628;2023-01-09T04:41:49;0.10;;;0.10;;
18887;SDS011;9576;47.792;9.628;2023-01-09T04:44:51;6.50;;;0.50;;
18887;SDS011;9576;47.792;9.628;2023-01-09T04:47:53;0.20;;;0.20;;
18887;SDS011;9576;47.792;9.628;2023-01-09T04:50:56;0.10;;;0.10;;
18887;SDS011;9576;47.792;9.628;2023-01-09T04:53:58;0.90;;;0.50;;
18887;SDS011;9576;47.792;9.628;2023-01-09T04:57:00;0.65;;;0.30;;
18887;SDS011;9576;47.792;9.628;2023-01-09T05:00:03;0.05;;;0.05;;
18887;SDS011;9576;47.792;9.628;2023-01-09T05:03:08;0.57;;;0.35;;
18887;SDS011;9576;47.792;9.628;2023-01-09T05:06:11;0.10;;;0.10;;
18887;SDS011;9576;47.792;9.628;2023-01-09T05:09:14;1.25;;;0.30;;
18887;SDS011;9576;47.792;9.628;2023-01-09T05:12:16;0.10;;;0.10;;
18887;SDS011;9576;47.792;9.628;2023-01-09T05:15:18;1.48;;;0.22;;
18887;SDS011;9576;47.792;9.628;2023-01-09T05:18:20;0.10;;;0.10;;
18887;SDS011;9576;47.792;9.628;2023-01-09T05:21:24;0.77;;;0.15;;
18887;SDS011;9576;47.792;9.628;2023-01-09T05:24:25;0.20;;;0.20;;
18887;SDS011;9576;47.792;9.628;2023-01-09T05:27:27;0.38;;;0.22;;
18887;SDS011;9576;47.792;9.628;2023-01-09T05:30:29;0.10;;;0.10;;
18887;SDS011;9576;47.792;9.628;2023-01-09T05:33:31;0.25;;;0.25;;
18887;SDS011;9576;47.792;9.628;2023-01-09T05:36:35;0.20;;;0.20;;
18887;SDS011;9576;47.792;9.628;2023-01-09T05:39:36;0.20;;;0.20;;
18887;SDS011;9576;47.792;9.628;2023-01-09T05:42:40;6.82;;;0.63;;
18887;SDS011;9576;47.792;9.628;2023-01-09T05:45:43;1.02;;;0.55;;
18887;SDS011;9576;47.792;9.628;2023-01-09T05:48:45;0.40;;;0.40;;
18887;SDS011;9576;47.792;9.628;2023-01-09T05:51:48;0.50;;;0.50;;
18887;SDS011;9576;47.792;9.628;2023-01-09T05:54:50;0.82;;;0.70;;
18887;SDS011;9576;47.792;9.628;2023-01-09T05:57:52;0.98;;;0.60;;
18887;SDS011;9576;47.792;9.628;2023-01-09T06:00:54;0.50;;;0.50;;
18887;SDS011;9576;47.792;9.628;2023-01-09T06:03:56;0.38;;;0.38;;
18887;SDS011;9576;47.792;9.628;2023-01-09T06:06:59;0.77;;;0.40;;
18887;SDS011;9576;47.792;9.628;2023-01-09T06:10:01;0.60;;;0.60;;
18887;SDS011;9576;47.792;9.628;2023-01-09T06:13:03;0.40;;;0.40;;
18887;SDS011;9576;47.792;9.628;2023-01-09T06:16:06;0.60;;;0.32;;
18887;SDS011;9576;47.792;9.628;2023-01-09T06:19:08;0.60;;;0.25;;
18887;SDS011;9576;47.792;9.628;2023-01-09T06:22:12;1.02;;;0.47;;
18887;SDS011;9576;47.792;9.628;2023-01-09T06:25:13;1.02;;;0.50;;
18887;SDS011;9576;47.792;9.628;2023-01-09T06:28:15;3.40;;;0.80;;
18887;SDS011;9576;47.792;9.628;2023-01-09T06:31:17;2.28;;;0.32;;
18887;SDS011;9576;47.792;9.628;2023-01-09T06:34:19;0.55;;;0.55;;
18887;SDS011;9576;47.792;9.628;2023-01-09T06:37:22;0.38;;;0.20;;
18887;SDS011;9576;47.792;9.628;2023-01-09T06:40:24;0.85;;;0.60;;
18887;SDS011;9576;47.792;9.628;2023-01-09T06:43:26;0.63;;;0.50;;
18887;SDS011;9576;47.792;9.628;2023-01-09T06:46:28;1.73;;;1.02;;
18887;SDS011;9576;47.792;9.628;2023-01-09T06:49:30;7.88;;;0.80;;
18887;SDS011;9576;47.792;9.628;2023-01-09T06:52:33;3.28;;;0.45;;
18887;SDS011;9576;47.792;9.628;2023-01-09T06:55:36;2.53;;;0.75;;
18887;SDS011;9576;47.792;9.628;2023-01-09T06:58:38;8.73;;;1.63;;
18887;SDS011;9576;47.792;9.628;2023-01-09T07:01:40;3.50;;;0.85;;
18887;SDS011;9576;47.792;9.628;2023-01-09T07:04:42;0.63;;;0.63;;
18887;SDS011;9576;47.792;9.628;2023-01-09T07:07:45;0.70;;;0.50;;
18887;SDS011;9576;47.792;9.628;2023-01-09T07:10:47;3.63;;;1.27;;
18887;SDS011;9576;47.792;9.628;2023-01-09T07:13:49;1.65;;;0.82;;
18887;SDS011;9576;47.792;9.628;2023-01-09T07:16:51;2.22;;;0.80;;
18887;SDS011;9576;47.792;9.628;2023-01-09T07:19:52;1.42;;;0.50;;
18887;SDS011;9576;47.792;9.628;2023-01-09T07:22:56;5.40;;;0.98;;
18887;SDS011;9576;47.792;9.628;2023-01-09T07:25:58;1.52;;;0.65;;
18887;SDS011;9576;47.792;9.628;2023-01-09T07:29:00;20.13;;;1.10;;
18887;SDS011;9576;47.792;9.628;2023-01-09T07:32:02;2.60;;;0.73;;
18887;SDS011;9576;47.792;9.628;2023-01-09T07:35:05;1.27;;;0.32;;
18887;SDS011;9576;47.792;9.628;2023-01-09T07:38:09;7.93;;;0.63;;
18887;SDS011;9576;47.792;9.628;2023-01-09T07:41:11;0.85;;;0.40;;
18887;SDS011;9576;47.792;9.628;2023-01-09T07:44:13;6.50;;;0.68;;
18887;SDS011;9576;47.792;9.628;2023-01-09T07:47:15;0.45;;;0.40;;
18887;SDS011;9576;47.792;9.628;2023-01-09T07:50:17;4.57;;;1.30;;
18887;SDS011;9576;47.792;9.628;2023-01-09T07:53:20;0.30;;;0.30;;
18887;SDS011;9576;47.792;9.628;2023-01-09T07:56:22;0.77;;;0.70;;
18887;SDS011;9576;47.792;9.628;2023-01-09T07:59:24;1.13;;;0.63;;
18887;SDS011;9576;47.792;9.628;2023-01-09T08:02:27;4.00;;;0.85;;
18887;SDS011;9576;47.792;9.628;2023-01-09T08:05:29;6.40;;;1.40;;
18887;SDS011;9576;47.792;9.628;2023-01-09T08:08:33;1.83;;;0.90;;
18887;SDS011;9576;47.792;9.628;2023-01-09T08:11:34;1.20;;;0.88;;
18887;SDS011;9576;47.792;9.628;2023-01-09T08:14:36;4.65;;;0.88;;
18887;SDS011;9576;47.792;9.628;2023-01-09T08:17:39;5.97;;;0.93;;
18887;SDS011;9576;47.792;9.628;2023-01-09T08:20:42;1.52;;;0.80;;
18887;SDS011;9576;47.792;9.628;2023-01-09T08:23:45;1.42;;;0.52;;
18887;SDS011;9576;47.792;9.628;2023-01-09T08:26:47;0.93;;;0.63;;
18887;SDS011;9576;47.792;9.628;2023-01-09T08:29:49;2.42;;;0.80;;
18887;SDS011;9576;47.792;9.628;2023-01-09T08:32:51;4.05;;;1.08;;
18887;SDS011;9576;47.792;9.628;2023-01-09T08:35:54;2.60;;;0.57;;
18887;SDS011;9576;47.792;9.628;2023-01-09T08:38:57;5.68;;;0.47;;
18887;SDS011;9576;47.792;9.628;2023-01-09T08:41:59;2.05;;;0.65;;
18887;SDS011;9576;47.792;9.628;2023-01-09T08:45:15;0.10;;;0.10;;
18887;SDS011;9576;47.792;9.628;2023-01-09T08:48:34;0.80;;;0.43;;
18887;SDS011;9576;47.792;9.628;2023-01-09T08:51:36;4.10;;;0.50;;
18887;SDS011;9576;47.792;9.628;2023-01-09T08:54:39;2.78;;;0.50;;
18887;SDS011;9576;47.792;9.628;2023-01-09T08:57:46;0.47;;;0.47;;
18887;SDS011;9576;47.792;9.628;2023-01-09T09:00:49;5.15;;;0.75;;
18887;SDS011;9576;47.792;9.628;2023-01-09T09:03:51;1.40;;;0.68;;
18887;SDS011;9576;47.792;9.628;2023-01-09T09:06:52;2.80;;;1.10;;
18887;SDS011;9576;47.792;9.628;2023-01-09T09:09:56;1.08;;;0.65;;
18887;SDS011;9576;47.792;9.628;2023-01-09T09:12:58;6.43;;;1.58;;
18887;SDS011;9576;47.792;9.628;2023-01-09T09:16:00;4.78;;;1.58;;
18887;SDS011;9576;47.792;9.628;2023-01-09T09:19:02;1.88;;;1.02;;
18887;SDS011;9576;47.792;9.628;2023-01-09T09:22:04;5.38;;;0.82;;
18887;SDS011;9576;47.792;9.628;2023-01-09T09:25:07;1.60;;;0.80;;
18887;SDS011;9576;47.792;9.628;2023-01-09T09:28:09;3.20;;;0.32;;
18887;SDS011;9576;47.792;9.628;2023-01-09T09:31:11;4.78;;;0.70;;
18887;SDS011;9576;47.792;9.628;2023-01-09T09:34:13;5.40;;;0.98;;
18887;SDS011;9576;47.792;9.628;2023-01-09T09:37:15;4.93;;;0.70;;
18887;SDS011;9576;47.792;9.628;2023-01-09T09:40:19;1.27;;;0.47;;
18887;SDS011;9576;47.792;9.628;2023-01-09T09:43:45;2.38;;;0.68;;
18887;SDS011;9576;47.792;9.628;2023-01-09T09:50:27;3.90;;;0.85;;
18887;SDS011;9576;47.792;9.628;2023-01-09T09:53:56;2.75;;;0.88;;
18887;SDS011;9576;47.792;9.628;2023-01-09T09:57:02;3.80;;;0.90;;
18887;SDS011;9576;47.792;9.628;2023-01-09T10:00:06;12.48;;;1.63;;
18887;SDS011;9576;47.792;9.628;2023-01-09T10:03:18;2.13;;;0.45;;
18887;SDS011;9576;47.792;9.628;2023-01-09T10:06:28;3.22;;;0.98;;
18887;SDS011;9576;47.792;9.628;2023-01-09T10:09:35;1.42;;;0.82;;
18887;SDS011;9576;47.792;9.628;2023-01-09T10:12:45;2.75;;;0.75;;
18887;SDS011;9576;47.792;9.628;2023-01-09T10:15:55;5.88;;;0.70;;
18887;SDS011;9576;47.792;9.628;2023-01-09T10:19:04;2.00;;;0.43;;
18887;SDS011;9576;47.792;9.628;2023-01-09T10:22:20;1.40;;;0.80;;
18887;SDS011;9576;47.792;9.628;2023-01-09T10:25:28;0.65;;;0.40;;
18887;SDS011;9576;47.792;9.628;2023-01-09T10:28:48;0.52;;;0.35;;
18887;SDS011;9576;47.792;9.628;2023-01-09T10:32:03;2.53;;;0.52;;
18887;SDS011;9576;47.792;9.628;2023-01-09T10:35:27;2.67;;;0.80;;
18887;SDS011;9576;47.792;9.628;2023-01-09T10:38:49;4.85;;;1.27;;
18887;SDS011;9576;47.792;9.628;2023-01-09T10:41:56;2.58;;;0.80;;
18887;SDS011;9576;47.792;9.628;2023-01-09T10:45:04;7.03;;;0.95;;
18887;SDS011;9576;47.792;9.628;2023-01-09T10:48:17;4.65;;;1.27;;
18887;SDS011;9576;47.792;9.628;2023-01-09T10:51:24;1.30;;;0.75;;
18887;SDS011;9576;47.792;9.628;2023-01-09T10:54:31;4.72;;;0.75;;
18887;SDS011;9576;47.792;9.628;2023-01-09T10:57:37;3.83;;;0.70;;
18887;SDS011;9576;47.792;9.628;2023-01-09T11:00:43;2.00;;;0.65;;
18887;SDS011;9576;47.792;9.628;2023-01-09T11:06:49;3.92;;;0.65;;
18887;SDS011;9576;47.792;9.628;2023-01-09T11:09:55;2.17;;;0.73;;
18887;SDS011;9576;47.792;9.628;2023-01-09T11:13:02;1.50;;;0.77;;
18887;SDS011;9576;47.792;9.628;2023-01-09T11:16:16;0.55;;;0.30;;
18887;SDS011;9576;47.792;9.628;2023-01-09T11:19:21;2.50;;;1.02;;
18887;SDS011;9576;47.792;9.628;2023-01-09T11:22:24;4.95;;;0.50;;
18887;SDS011;9576;47.792;9.628;2023-01-09T11:25:27;1.45;;;0.68;;
18887;SDS011;9576;47.792;9.628;2023-01-09T11:28:29;1.15;;;0.82;;
18887;SDS011;9576;47.792;9.628;2023-01-09T11:31:32;1.50;;;0.57;;
18887;SDS011;9576;47.792;9.628;2023-01-09T11:34:34;1.30;;;0.82;;
18887;SDS011;9576;47.792;9.628;2023-01-09T11:37:38;1.63;;;0.88;;
18887;SDS011;9576;47.792;9.628;2023-01-09T11:40:43;0.60;;;0.40;;
18887;SDS011;9576;47.792;9.628;2023-01-09T11:43:48;4.90;;;0.93;;
18887;SDS011;9576;47.792;9.628;2023-01-09T11:46:54;0.43;;;0.43;;
18887;SDS011;9576;47.792;9.628;2023-01-09T11:50:06;4.45;;;0.95;;
18887;SDS011;9576;47.792;9.628;2023-01-09T11:53:16;7.88;;;1.00;;
18887;SDS011;9576;47.792;9.628;2023-01-09T11:56:19;1.10;;;0.63;;
18887;SDS011;9576;47.792;9.628;2023-01-09T11:59:22;0.20;;;0.20;;
18887;SDS011;9576;47.792;9.628;2023-01-09T12:02:44;1.75;;;0.70;;
18887;SDS011;9576;47.792;9.628;2023-01-09T12:06:02;5.05;;;1.10;;
18887;SDS011;9576;47.792;9.628;2023-01-09T12:09:11;0.50;;;0.50;;
18887;SDS011;9576;47.792;9.628;2023-01-09T12:12:21;3.42;;;0.88;;
18887;SDS011;9576;47.792;9.628;2023-01-09T12:15:29;4.50;;;0.95;;
18887;SDS011;9576;47.792;9.628;2023-01-09T12:18:41;4.72;;;1.23;;
18887;SDS011;9576;47.792;9.628;2023-01-09T12:21:56;1.13;;;0.80;;
18887;SDS011;9576;47.792;9.628;2023-01-09T12:25:07;1.00;;;0.63;;
18887;SDS011;9576;47.792;9.628;2023-01-09T12:28:18;9.48;;;0.57;;
18887;SDS011;9576;47.792;9.628;2023-01-09T12:31:37;1.15;;;0.73;;
18887;SDS011;9576;47.792;9.628;2023-01-09T12:34:54;5.68;;;0.93;;
18887;SDS011;9576;47.792;9.628;2023-01-09T12:41:34;4.93;;;0.88;;
18887;SDS011;9576;47.792;9.628;2023-01-09T12:44:57;2.22;;;0.70;;
18887;SDS011;9576;47.792;9.628;2023-01-09T12:48:02;2.65;;;0.80;;
18887;SDS011;9576;47.792;9.628;2023-01-09T12:54:35;0.85;;;0.50;;
18887;SDS011;9576;47.792;9.628;2023-01-09T12:57:41;3.22;;;0.50;;
18887;SDS011;9576;47.792;9.628;2023-01-09T13:00:46;7.53;;;0.75;;
18887;SDS011;9576;47.792;9.628;2023-01-09T13:03:52;6.50;;;0.85;;
18887;SDS011;9576;47.792;9.628;2023-01-09T13:07:08;1.08;;;0.43;;
18887;SDS011;9576;47.792;9.628;2023-01-09T13:10:18;4.90;;;0.90;;
18887;SDS011;9576;47.792;9.628;2023-01-09T13:13:33;1.38;;;0.75;;
18887;SDS011;9576;47.792;9.628;2023-01-09T13:16:42;1.05;;;0.43;;
18887;SDS011;9576;47.792;9.628;2023-01-09T13:19:48;1.35;;;0.55;;
18887;SDS011;9576;47.792;9.628;2023-01-09T13:22:51;3.80;;;1.05;;
18887;SDS011;9576;47.792;9.628;2023-01-09T13:25:54;2.35;;;0.57;;
18887;SDS011;9576;47.792;9.628;2023-01-09T13:28:58;0.95;;;0.57;;
18887;SDS011;9576;47.792;9.628;2023-01-09T13:32:11;2.17;;;0.70;;
18887;SDS011;9576;47.792;9.628;2023-01-09T13:35:22;6.28;;;0.50;;
18887;SDS011;9576;47.792;9.628;2023-01-09T13:38:26;2.55;;;0.30;;
18887;SDS011;9576;47.792;9.628;2023-01-09T13:41:30;3.45;;;0.82;;
18887;SDS011;9576;47.792;9.628;2023-01-09T13:44:51;1.05;;;0.75;;
18887;SDS011;9576;47.792;9.628;2023-01-09T13:51:36;0.90;;;0.57;;
18887;SDS011;9576;47.792;9.628;2023-01-09T13:55:02;0.30;;;0.30;;
18887;SDS011;9576;47.792;9.628;2023-01-09T13:58:24;0.98;;;0.43;;
18887;SDS011;9576;47.792;9.628;2023-01-09T14:01:40;1.75;;;0.60;;
18887;SDS011;9576;47.792;9.628;2023-01-09T14:04:46;1.55;;;0.65;;
18887;SDS011;9576;47.792;9.628;2023-01-09T14:07:48;1.65;;;0.50;;
18887;SDS011;9576;47.792;9.628;2023-01-09T14:10:54;0.57;;;0.35;;
18887;SDS011;9576;47.792;9.628;2023-01-09T14:14:01;0.50;;;0.40;;
18887;SDS011;9576;47.792;9.628;2023-01-09T14:17:13;0.77;;;0.70;;
18887;SDS011;9576;47.792;9.628;2023-01-09T14:20:22;3.75;;;0.95;;
18887;SDS011;9576;47.792;9.628;2023-01-09T14:23:27;3.17;;;1.33;;
18887;SDS011;9576;47.792;9.628;2023-01-09T14:26:44;6.50;;;1.10;;
18887;SDS011;9576;47.792;9.628;2023-01-09T14:29:47;2.65;;;0.68;;
18887;SDS011;9576;47.792;9.628;2023-01-09T14:32:54;6.80;;;1.48;;
18887;SDS011;9576;47.792;9.628;2023-01-09T14:36:00;2.58;;;0.55;;
18887;SDS011;9576;47.792;9.628;2023-01-09T14:39:15;3.40;;;1.35;;
18887;SDS011;9576;47.792;9.628;2023-01-09T14:42:20;1.77;;;0.80;;
18887;SDS011;9576;47.792;9.628;2023-01-09T14:45:28;5.07;;;1.60;;
18887;SDS011;9576;47.792;9.628;2023-01-09T14:48:31;2.90;;;1.70;;
18887;SDS011;9576;47.792;9.628;2023-01-09T14:51:36;2.53;;;0.90;;
18887;SDS011;9576;47.792;9.628;2023-01-09T14:54:42;1.55;;;0.70;;
18887;SDS011;9576;47.792;9.628;2023-01-09T14:57:45;1.40;;;0.88;;
18887;SDS011;9576;47.792;9.628;2023-01-09T15:00:52;7.82;;;1.20;;
18887;SDS011;9576;47.792;9.628;2023-01-09T15:03:59;1.85;;;0.85;;
18887;SDS011;9576;47.792;9.628;2023-01-09T15:07:04;0.47;;;0.45;;
18887;SDS011;9576;47.792;9.628;2023-01-09T15:10:10;0.95;;;0.75;;
18887;SDS011;9576;47.792;9.628;2023-01-09T15:13:25;6.72;;;0.70;;
18887;SDS011;9576;47.792;9.628;2023-01-09T15:16:35;2.67;;;0.50;;
18887;SDS011;9576;47.792;9.628;2023-01-09T15:19:37;7.32;;;0.77;;
18887;SDS011;9576;47.792;9.628;2023-01-09T15:22:47;4.68;;;0.80;;
18887;SDS011;9576;47.792;9.628;2023-01-09T15:25:49;2.72;;;0.60;;
18887;SDS011;9576;47.792;9.628;2023-01-09T15:28:58;6.93;;;1.05;;
18887;SDS011;9576;47.792;9.628;2023-01-09T15:32:02;5.70;;;1.15;;
18887;SDS011;9576;47.792;9.628;2023-01-09T15:35:11;3.28;;;0.73;;
18887;SDS011;9576;47.792;9.628;2023-01-09T15:38:14;4.05;;;0.80;;
18887;SDS011;9576;47.792;9.628;2023-01-09T15:41:22;2.83;;;0.95;;
18887;SDS011;9576;47.792;9.628;2023-01-09T15:44:45;2.30;;;0.73;;
18887;SDS011;9576;47.792;9.628;2023-01-09T15:47:49;1.20;;;0.85;;
18887;SDS011;9576;47.792;9.628;2023-01-09T15:50:53;2.22;;;0.82;;
18887;SDS011;9576;47.792;9.628;2023-01-09T15:53:57;3.45;;;1.30;;
18887;SDS011;9576;47.792;9.628;2023-01-09T15:57:20;4.57;;;1.90;;
18887;SDS011;9576;47.792;9.628;2023-01-09T16:00:40;4.80;;;1.17;;
18887;SDS011;9576;47.792;9.628;2023-01-09T16:03:44;15.55;;;4.93;;
18887;SDS011;9576;47.792;9.628;2023-01-09T16:06:47;18.92;;;3.13;;
18887;SDS011;9576;47.792;9.628;2023-01-09T16:09:50;4.07;;;1.67;;
18887;SDS011;9576;47.792;9.628;2023-01-09T16:12:52;10.60;;;2.08;;
18887;SDS011;9576;47.792;9.628;2023-01-09T16:15:56;2.92;;;1.48;;
18887;SDS011;9576;47.792;9.628;2023-01-09T16:18:59;7.13;;;1.80;;
18887;SDS011;9576;47.792;9.628;2023-01-09T16:22:01;13.57;;;2.67;;
18887;SDS011;9576;47.792;9.628;2023-01-09T16:25:21;7.55;;;2.20;;
18887;SDS011;9576;47.792;9.628;2023-01-09T16:28:27;5.93;;;1.77;;
18887;SDS011;9576;47.792;9.628;2023-01-09T16:31:32;4.55;;;1.85;;
18887;SDS011;9576;47.792;9.628;2023-01-09T16:34:34;4.00;;;2.03;;
18887;SDS011;9576;47.792;9.628;2023-01-09T16:37:36;10.43;;;2.35;;
18887;SDS011;9576;47.792;9.628;2023-01-09T16:40:38;3.28;;;2.03;;
18887;SDS011;9576;47.792;9.628;2023-01-09T16:43:40;3.00;;;2.05;;
18887;SDS011;9576;47.792;9.628;2023-01-09T16:46:42;4.88;;;2.42;;
18887;SDS011;9576;47.792;9.628;2023-01-09T16:49:45;7.85;;;2.67;;
18887;SDS011;9576;47.792;9.628;2023-01-09T16:52:46;3.05;;;1.55;;
18887;SDS011;9576;47.792;9.628;2023-01-09T16:55:49;13.73;;;2.50;;
18887;SDS011;9576;47.792;9.628;2023-01-09T16:58:53;5.55;;;1.45;;
18887;SDS011;9576;47.792;9.628;2023-01-09T17:01:57;4.65;;;2.25;;
18887;SDS011;9576;47.792;9.628;2023-01-09T17:04:59;5.53;;;2.08;;
18887;SDS011;9576;47.792;9.628;2023-01-09T17:08:02;3.15;;;1.10;;
18887;SDS011;9576;47.792;9.628;2023-01-09T17:11:04;3.90;;;1.15;;
18887;SDS011;9576;47.792;9.628;2023-01-09T17:14:06;3.70;;;1.60;;
18887;SDS011;9576;47.792;9.628;2023-01-09T17:17:12;0.80;;;0.60;;
18887;SDS011;9576;47.792;9.628;2023-01-09T17:20:17;0.87;;;0.87;;
18887;SDS011;9576;47.792;9.628;2023-01-09T17:23:20;2.60;;;0.75;;
18887;SDS011;9576;47.792;9.628;2023-01-09T17:26:24;1.15;;;0.75;;
18887;SDS011;9576;47.792;9.628;2023-01-09T17:29:44;6.53;;;1.23;;
18887;SDS011;9576;47.792;9.628;2023-01-09T17:32:47;0.85;;;0.60;;
18887;SDS011;9576;47.792;9.628;2023-01-09T17:35:49;7.70;;;2.38;;
18887;SDS011;9576;47.792;9.628;2023-01-09T17:38:51;7.32;;;1.13;;
18887;SDS011;9576;47.792;9.628;2023-01-09T17:41:54;1.90;;;0.85;;
18887;SDS011;9576;47.792;9.628;2023-01-09T17:44:56;8.70;;;3.17;;
18887;SDS011;9576;47.792;9.628;2023-01-09T17:48:00;1.08;;;0.98;;
18887;SDS011;9576;47.792;9.628;2023-01-09T17:51:02;0.90;;;0.60;;
18887;SDS011;9576;47.792;9.628;2023-01-09T17:54:04;0.75;;;0.75;;
18887;SDS011;9576;47.792;9.628;2023-01-09T17:57:06;2.58;;;1.13;;
18887;SDS011;9576;47.792;9.628;2023-01-09T18:00:12;2.17;;;1.27;;
18887;SDS011;9576;47.792;9.628;2023-01-09T18:03:26;7.85;;;1.27;;
18887;SDS011;9576;47.792;9.628;2023-01-09T18:06:32;0.98;;;0.90;;
18887;SDS011;9576;47.792;9.628;2023-01-09T18:09:35;1.50;;;0.82;;
18887;SDS011;9576;47.792;9.628;2023-01-09T18:12:37;2.00;;;1.02;;
18887;SDS011;9576;47.792;9.628;2023-01-09T18:15:40;7.00;;;0.93;;
18887;SDS011;9576;47.792;9.628;2023-01-09T18:18:44;2.40;;;1.25;;
18887;SDS011;9576;47.792;9.628;2023-01-09T18:21:46;11.57;;;1.10;;
18887;SDS011;9576;47.792;9.628;2023-01-09T18:24:48;1.88;;;0.98;;
18887;SDS011;9576;47.792;9.628;2023-01-09T18:27:50;3.13;;;1.23;;
18887;SDS011;9576;47.792;9.628;2023-01-09T18:30:52;2.05;;;1.13;;
18887;SDS011;9576;47.792;9.628;2023-01-09T18:33:56;4.63;;;1.20;;
18887;SDS011;9576;47.792;9.628;2023-01-09T18:37:01;2.53;;;1.15;;
18887;SDS011;9576;47.792;9.628;2023-01-09T18:40:03;1.00;;;0.90;;
18887;SDS011;9576;47.792;9.628;2023-01-09T18:43:06;2.00;;;1.25;;
18887;SDS011;9576;47.792;9.628;2023-01-09T18:46:09;7.20;;;1.40;;
18887;SDS011;9576;47.792;9.628;2023-01-09T18:49:12;2.33;;;1.05;;
18887;SDS011;9576;47.792;9.628;2023-01-09T18:52:14;1.42;;;1.23;;
18887;SDS011;9576;47.792;9.628;2023-01-09T18:55:16;2.67;;;1.15;;
18887;SDS011;9576;47.792;9.628;2023-01-09T18:58:18;4.05;;;1.45;;
18887;SDS011;9576;47.792;9.628;2023-01-09T19:01:20;3.95;;;1.15;;
18887;SDS011;9576;47.792;9.628;2023-01-09T19:04:23;1.90;;;1.10;;
18887;SDS011;9576;47.792;9.628;2023-01-09T19:07:25;0.80;;;0.52;;
18887;SDS011;9576;47.792;9.628;2023-01-09T19:10:27;0.73;;;0.73;;
18887;SDS011;9576;47.792;9.628;2023-01-09T19:13:29;3.35;;;0.90;;